Time;durP1;ratioP1;P1;durP2;ratioP2;P2;SDS_P1;SDS_P2;PMS_P1;PMS_P2;Temp;Humidity;BMP_temperature;BMP_pressure;BME280_temperature;BME280_humidity;BME280_pressure;Samples;Min_cycle;Max_cycle;Signal;HPM_P1;HPM_P2
2023/03/31 00:00:19;;;;;;;0.50;0.40;;;10.60;99.90;;;;;;5087809;28;20445;-80
2023/03/31 00:02:46;;;;;;;0.50;0.40;;;10.60;99.90;;;;;;5085263;28;20200;-79
2023/03/31 00:05:16;;;;;;;5.38;0.60;;;10.60;99.90;;;;;;5085773;28;20189;-79
2023/03/31 00:07:47;;;;;;;0.50;0.40;;;10.60;99.90;;;;;;5090425;28;20246;-80
2023/03/31 00:10:14;;;;;;;1.58;0.50;;;10.60;99.90;;;;;;5096672;28;20431;-80
2023/03/31 00:12:41;;;;;;;0.50;0.40;;;10.60;99.90;;;;;;5080871;28;20204;-82
2023/03/31 00:15:08;;;;;;;0.50;0.40;;;10.60;99.90;;;;;;5090721;28;20289;-80
2023/03/31 00:17:35;;;;;;;0.60;0.50;;;10.60;99.90;;;;;;5088431;28;20613;-80
2023/03/31 00:20:04;;;;;;;0.50;0.40;;;10.60;99.90;;;;;;5088432;28;20219;-80
2023/03/31 00:22:31;;;;;;;0.50;0.40;;;10.50;99.90;;;;;;5094334;28;20615;-81
2023/03/31 00:25:00;;;;;;;0.50;0.50;;;10.60;99.90;;;;;;5083631;28;20526;-79
2023/03/31 00:27:27;;;;;;;0.50;0.40;;;10.50;99.90;;;;;;5097021;28;20190;-80
2023/03/31 00:29:54;;;;;;;0.50;0.40;;;10.60;99.90;;;;;;5096240;28;20505;-80
2023/03/31 00:32:21;;;;;;;0.50;0.40;;;10.60;99.90;;;;;;5088466;28;20805;-80
2023/03/31 00:34:48;;;;;;;0.50;0.50;;;10.50;99.90;;;;;;5088341;28;20189;-80
2023/03/31 00:37:14;;;;;;;1.50;1.05;;;10.50;99.90;;;;;;5088023;28;20214;-80
2023/03/31 00:39:42;;;;;;;0.95;0.70;;;10.60;99.90;;;;;;5084210;28;20297;-80
2023/03/31 00:42:12;;;;;;;0.50;0.40;;;10.60;99.90;;;;;;5084780;28;20198;-80
2023/03/31 00:45:18;;;;;;;0.50;0.40;;;10.70;99.90;;;;;;5088872;28;20648;-80
2023/03/31 00:47:50;;;;;;;0.50;0.40;;;10.60;99.90;;;;;;5089448;28;20640;-81
2023/03/31 00:50:21;;;;;;;0.60;0.40;;;10.60;99.90;;;;;;5096720;28;20196;-81
2023/03/31 00:52:53;;;;;;;0.50;0.40;;;10.60;99.90;;;;;;5083018;28;20939;-80
2023/03/31 00:55:25;;;;;;;0.70;0.50;;;10.50;99.90;;;;;;5092998;28;20279;-80
2023/03/31 00:57:54;;;;;;;7.18;0.75;;;10.50;99.90;;;;;;5089823;28;20474;-80
2023/03/31 01:00:22;;;;;;;0.50;0.40;;;10.50;99.90;;;;;;5087076;28;20616;-80
2023/03/31 01:02:54;;;;;;;0.50;0.40;;;10.50;99.90;;;;;;5110464;22;21328;-80
2023/03/31 01:05:25;;;;;;;0.50;0.40;;;10.50;99.90;;;;;;5054027;28;20441;-81
2023/03/31 01:07:54;;;;;;;0.50;0.40;;;10.50;99.90;;;;;;5058177;28;20443;-80
2023/03/31 01:10:21;;;;;;;0.50;0.40;;;10.50;99.90;;;;;;5058727;28;20203;-81
2023/03/31 01:12:51;;;;;;;0.90;0.53;;;10.40;99.90;;;;;;5061271;28;20445;-81
2023/03/31 01:15:19;;;;;;;0.70;0.70;;;10.40;99.90;;;;;;5077451;28;20444;-80
2023/03/31 01:17:48;;;;;;;0.70;0.70;;;10.40;99.90;;;;;;5077021;28;20484;-80
2023/03/31 01:20:29;;;;;;;0.50;0.40;;;10.30;99.90;;;;;;5078333;28;20225;-79
2023/03/31 01:23:32;;;;;;;0.65;0.65;;;10.20;99.90;;;;;;5079841;28;20214;-81
2023/03/31 01:26:37;;;;;;;0.70;0.52;;;10.20;99.90;;;;;;5069127;28;20289;-81
2023/03/31 01:29:14;;;;;;;0.93;0.93;;;10.20;99.90;;;;;;5074237;28;20208;-81
2023/03/31 01:32:21;;;;;;;0.50;0.40;;;10.10;99.90;;;;;;5071545;28;20916;-81
2023/03/31 01:35:18;;;;;;;0.50;0.40;;;10.10;99.90;;;;;;5079708;28;20647;-81
2023/03/31 01:38:28;;;;;;;0.50;0.40;;;10.10;99.90;;;;;;5071997;28;20807;-80
2023/03/31 01:41:21;;;;;;;0.50;0.43;;;10.10;99.90;;;;;;5073133;28;20653;-81
2023/03/31 01:43:57;;;;;;;0.50;0.40;;;10.10;99.90;;;;;;5069959;28;20225;-81
2023/03/31 01:46:30;;;;;;;0.50;0.40;;;10.20;99.90;;;;;;5078926;28;20288;-80
2023/03/31 01:49:05;;;;;;;0.50;0.40;;;10.10;99.90;;;;;;5078829;28;20221;-80
2023/03/31 01:51:35;;;;;;;0.50;0.40;;;10.10;99.90;;;;;;5078739;28;20281;-79
2023/03/31 01:54:12;;;;;;;0.50;0.40;;;10.10;99.90;;;;;;5079108;28;20288;-81
2023/03/31 01:56:46;;;;;;;0.50;0.40;;;10.10;99.90;;;;;;5078884;28;20282;-80
2023/03/31 01:59:17;;;;;;;0.70;0.60;;;10.20;99.90;;;;;;5078620;28;20670;-80
2023/03/31 02:01:51;;;;;;;0.50;0.40;;;10.20;99.90;;;;;;5070563;28;20288;-80
2023/03/31 02:04:22;;;;;;;0.50;0.40;;;10.10;99.90;;;;;;5078384;28;20222;-79
2023/03/31 02:06:57;;;;;;;0.50;0.40;;;10.10;99.90;;;;;;5079084;28;20565;-80
2023/03/31 02:09:28;;;;;;;0.50;0.40;;;10.10;99.90;;;;;;5078298;28;20436;-81
2023/03/31 02:11:59;;;;;;;0.50;0.40;;;10.10;99.90;;;;;;5078889;28;20895;-81
2023/03/31 02:14:30;;;;;;;0.50;0.40;;;10.10;99.90;;;;;;5078239;28;20467;-81
2023/03/31 02:17:01;;;;;;;0.50;0.40;;;10.10;99.90;;;;;;5077973;28;20475;-80
2023/03/31 02:19:32;;;;;;;0.50;0.50;;;10.10;99.90;;;;;;5079054;28;20219;-80
2023/03/31 02:22:00;;;;;;;0.50;0.40;;;10.10;99.90;;;;;;5078307;28;20285;-80
2023/03/31 02:24:30;;;;;;;0.60;0.60;;;10.10;99.90;;;;;;5078051;28;20217;-81
2023/03/31 02:27:05;;;;;;;2.35;1.73;;;10.10;99.90;;;;;;5079318;28;20289;-80
2023/03/31 02:29:32;;;;;;;0.50;0.50;;;10.10;99.90;;;;;;5080575;28;20631;-80
2023/03/31 02:32:04;;;;;;;0.70;0.70;;;10.10;99.90;;;;;;5079302;28;20269;-81
2023/03/31 02:34:31;;;;;;;0.50;0.50;;;10.00;99.90;;;;;;5079735;28;20220;-81
2023/03/31 02:36:58;;;;;;;3.35;0.82;;;10.00;99.90;;;;;;5079786;28;20457;-80
2023/03/31 02:39:29;;;;;;;0.50;0.40;;;10.10;99.90;;;;;;5078929;28;20214;-80
2023/03/31 02:41:56;;;;;;;0.90;0.90;;;10.10;99.90;;;;;;5078537;28;20448;-81
2023/03/31 02:44:25;;;;;;;0.50;0.40;;;10.10;99.90;;;;;;5078513;28;20456;-80
2023/03/31 02:46:52;;;;;;;1.23;0.40;;;10.10;99.90;;;;;;5077732;28;20247;-79
2023/03/31 02:49:20;;;;;;;0.85;0.85;;;10.10;99.90;;;;;;5077963;28;20197;-81
2023/03/31 02:52:28;;;;;;;0.50;0.40;;;10.10;99.90;;;;;;5070023;28;20218;-81
2023/03/31 02:55:16;;;;;;;0.85;0.82;;;10.10;99.90;;;;;;5031528;28;20193;-80
2023/03/31 02:58:33;;;;;;;0.50;0.40;;;10.10;99.90;;;;;;5076979;28;20194;-80
2023/03/31 03:01:15;;;;;;;0.53;0.50;;;10.10;99.90;;;;;;5064894;28;20224;-80
2023/03/31 03:03:55;;;;;;;1.92;0.70;;;10.10;99.90;;;;;;5076856;28;20459;-80
2023/03/31 03:06:36;;;;;;;4.72;1.50;;;10.10;99.90;;;;;;5077393;28;20261;-80
2023/03/31 03:09:11;;;;;;;0.50;0.40;;;10.10;99.90;;;;;;5077096;28;20680;-81
2023/03/31 03:11:46;;;;;;;0.90;0.80;;;10.10;99.90;;;;;;5077464;28;20201;-80
2023/03/31 03:14:22;;;;;;;0.60;0.60;;;10.10;99.90;;;;;;5077612;28;20312;-80
2023/03/31 03:16:57;;;;;;;0.50;0.40;;;10.10;99.90;;;;;;5068762;28;20503;-79
2023/03/31 03:19:25;;;;;;;1.02;0.93;;;10.10;99.90;;;;;;5076644;28;20490;-81
2023/03/31 03:21:52;;;;;;;0.50;0.40;;;10.10;99.90;;;;;;5076656;28;20288;-80
2023/03/31 03:24:21;;;;;;;2.47;2.28;;;10.10;99.90;;;;;;5076972;28;20218;-81
2023/03/31 03:26:48;;;;;;;0.50;0.40;;;10.10;99.90;;;;;;5069106;28;20273;-81
2023/03/31 03:29:15;;;;;;;0.50;0.40;;;10.10;99.90;;;;;;5076896;28;20198;-81
2023/03/31 03:31:42;;;;;;;0.50;0.40;;;10.10;99.90;;;;;;5076238;28;20691;-80
2023/03/31 03:34:10;;;;;;;0.50;0.50;;;10.10;99.90;;;;;;5076722;28;20820;-81
2023/03/31 03:36:38;;;;;;;0.50;0.40;;;10.10;99.90;;;;;;5076276;28;20202;-78
2023/03/31 03:39:07;;;;;;;0.50;0.40;;;10.00;99.90;;;;;;5076431;28;20214;-81
2023/03/31 03:41:34;;;;;;;0.60;0.55;;;10.00;99.90;;;;;;5076043;28;20194;-81
2023/03/31 03:44:01;;;;;;;0.50;0.40;;;10.00;99.90;;;;;;5077161;28;20228;-81
2023/03/31 03:46:28;;;;;;;1.80;1.70;;;10.10;99.90;;;;;;5076409;28;20681;-80
2023/03/31 03:48:55;;;;;;;0.50;0.40;;;10.00;99.90;;;;;;5076550;28;20202;-81
2023/03/31 03:51:23;;;;;;;0.50;0.45;;;10.00;99.90;;;;;;5077913;28;20436;-81
2023/03/31 03:53:50;;;;;;;0.50;0.40;;;10.00;99.90;;;;;;5068738;28;20309;-81
2023/03/31 03:56:17;;;;;;;0.50;0.43;;;10.00;99.90;;;;;;5076958;28;20269;-81
2023/03/31 03:58:44;;;;;;;0.50;0.40;;;10.10;99.90;;;;;;5076232;28;20273;-80
2023/03/31 04:01:11;;;;;;;0.50;0.40;;;10.10;99.90;;;;;;5076452;28;20840;-81
2023/03/31 04:03:38;;;;;;;0.60;0.50;;;10.10;99.90;;;;;;5076141;28;20233;-80
2023/03/31 04:06:05;;;;;;;0.50;0.40;;;10.00;99.90;;;;;;5076490;28;20912;-79
2023/03/31 04:08:33;;;;;;;0.70;0.60;;;10.00;99.90;;;;;;5075990;28;20744;-80
2023/03/31 04:11:00;;;;;;;0.50;0.40;;;10.00;99.90;;;;;;5076103;28;20288;-81
2023/03/31 04:13:27;;;;;;;0.50;0.40;;;10.00;99.90;;;;;;5075630;28;20226;-80
2023/03/31 04:15:54;;;;;;;0.50;0.40;;;10.00;99.90;;;;;;5075589;28;20352;-79
2023/03/31 04:18:22;;;;;;;0.50;0.40;;;10.00;99.90;;;;;;5076456;28;20307;-79
2023/03/31 04:20:53;;;;;;;0.50;0.40;;;10.00;99.90;;;;;;5075464;28;20194;-79
2023/03/31 04:23:22;;;;;;;0.70;0.70;;;10.00;99.90;;;;;;5075082;28;20218;-80
2023/03/31 04:25:50;;;;;;;0.77;0.77;;;10.00;99.90;;;;;;5074659;28;20695;-80
2023/03/31 04:28:17;;;;;;;0.50;0.40;;;10.00;99.90;;;;;;5074484;28;20201;-79
2023/03/31 04:30:44;;;;;;;0.50;0.40;;;9.90;99.90;;;;;;5074629;28;20240;-78
2023/03/31 04:33:14;;;;;;;0.82;0.80;;;10.00;99.90;;;;;;5075035;28;20305;-80
2023/03/31 04:35:49;;;;;;;0.50;0.40;;;9.90;99.90;;;;;;5075445;28;20665;-80
2023/03/31 04:38:18;;;;;;;0.60;0.55;;;9.90;99.90;;;;;;5075296;28;20197;-79
2023/03/31 04:40:46;;;;;;;0.50;0.40;;;9.90;99.90;;;;;;5075835;28;20545;-79
2023/03/31 04:43:15;;;;;;;0.50;0.50;;;10.00;99.90;;;;;;5075725;28;20300;-79
2023/03/31 04:45:42;;;;;;;0.50;0.40;;;10.00;99.90;;;;;;5075430;28;20225;-80
2023/03/31 04:48:09;;;;;;;1.15;0.60;;;10.00;99.90;;;;;;5075263;28;20200;-81
2023/03/31 04:50:36;;;;;;;1.40;1.30;;;10.00;99.90;;;;;;5075129;28;20194;-80
2023/03/31 04:53:03;;;;;;;0.50;0.50;;;10.00;99.90;;;;;;5074804;28;20224;-79
2023/03/31 04:55:30;;;;;;;0.80;0.63;;;10.00;99.90;;;;;;5076503;28;20292;-80
2023/03/31 04:57:57;;;;;;;0.60;0.60;;;10.00;99.90;;;;;;5078936;28;20201;-80
2023/03/31 05:00:27;;;;;;;2.58;0.60;;;9.90;99.90;;;;;;5078523;28;20209;-80
2023/03/31 05:02:54;;;;;;;1.50;0.88;;;9.90;99.90;;;;;;5070601;28;20598;-80
2023/03/31 05:05:21;;;;;;;0.50;0.50;;;9.80;99.90;;;;;;5078698;28;20564;-79
2023/03/31 05:07:48;;;;;;;1.70;0.60;;;9.90;99.90;;;;;;5078068;28;20277;-80
2023/03/31 05:10:15;;;;;;;1.08;1.05;;;9.80;99.90;;;;;;5077853;28;20281;-79
2023/03/31 05:12:42;;;;;;;0.50;0.40;;;9.80;99.90;;;;;;5077033;28;20198;-79
2023/03/31 05:15:10;;;;;;;0.50;0.40;;;9.80;99.90;;;;;;5077091;28;20469;-80
2023/03/31 05:17:38;;;;;;;0.60;0.60;;;9.80;99.90;;;;;;5076537;28;20448;-79
2023/03/31 05:20:07;;;;;;;4.30;2.55;;;9.70;99.90;;;;;;5076945;28;20231;-80
2023/03/31 05:22:35;;;;;;;0.50;0.40;;;9.70;99.90;;;;;;5076599;28;20194;-80
2023/03/31 05:25:03;;;;;;;0.70;0.70;;;9.70;99.90;;;;;;5077120;28;20198;-79
2023/03/31 05:27:30;;;;;;;0.50;0.40;;;9.60;99.90;;;;;;5076467;28;20194;-80
2023/03/31 05:29:58;;;;;;;0.50;0.40;;;9.60;99.90;;;;;;5076698;28;20225;-81
2023/03/31 05:32:25;;;;;;;0.50;0.40;;;9.60;99.90;;;;;;5077040;28;20200;-80
2023/03/31 05:34:55;;;;;;;0.55;0.52;;;9.60;99.90;;;;;;5076420;28;20218;-81
2023/03/31 05:37:23;;;;;;;0.80;0.65;;;9.60;99.90;;;;;;5077950;28;20262;-80
2023/03/31 05:39:50;;;;;;;0.80;0.80;;;9.60;99.90;;;;;;5089828;28;20248;-80
2023/03/31 05:42:17;;;;;;;1.15;0.80;;;9.60;99.90;;;;;;5082400;28;20280;-80
2023/03/31 05:44:44;;;;;;;0.50;0.40;;;9.70;99.90;;;;;;5078121;28;20241;-79
2023/03/31 05:47:11;;;;;;;0.50;0.50;;;9.70;99.90;;;;;;5086691;28;20201;-79
2023/03/31 05:49:38;;;;;;;0.50;0.40;;;9.70;99.90;;;;;;5077341;28;20806;-79
2023/03/31 05:52:06;;;;;;;1.52;0.70;;;9.80;99.90;;;;;;5076444;28;20289;-79
2023/03/31 05:54:33;;;;;;;0.52;0.52;;;9.70;99.90;;;;;;5076513;28;20249;-79
2023/03/31 05:57:00;;;;;;;1.33;1.00;;;9.80;99.90;;;;;;5076396;28;20232;-79
2023/03/31 05:59:27;;;;;;;0.55;0.43;;;9.80;99.90;;;;;;5076898;28;20220;-79
2023/03/31 06:01:54;;;;;;;0.50;0.40;;;9.80;99.90;;;;;;5075920;28;20194;-79
2023/03/31 06:04:21;;;;;;;0.80;0.75;;;9.80;99.90;;;;;;5076447;28;20281;-80
2023/03/31 06:06:49;;;;;;;0.50;0.40;;;9.90;99.90;;;;;;5076103;28;20229;-78
2023/03/31 06:09:17;;;;;;;1.60;0.40;;;9.90;99.90;;;;;;5077226;28;20193;-80
2023/03/31 06:11:44;;;;;;;2.65;0.70;;;10.00;99.90;;;;;;5076131;28;20205;-80
2023/03/31 06:14:12;;;;;;;0.55;0.52;;;9.90;99.90;;;;;;5076361;28;20220;-80
2023/03/31 06:16:39;;;;;;;3.15;0.85;;;10.00;99.90;;;;;;5077032;28;20201;-78
2023/03/31 06:19:05;;;;;;;0.50;0.40;;;10.00;99.90;;;;;;5076060;28;20331;-79
2023/03/31 06:21:32;;;;;;;3.38;0.70;;;10.00;99.90;;;;;;5075975;28;20198;-77
2023/03/31 06:23:59;;;;;;;0.50;0.40;;;10.00;99.90;;;;;;5077830;28;20313;-79
2023/03/31 06:26:27;;;;;;;0.50;0.40;;;10.00;99.90;;;;;;5076755;28;20257;-79
2023/03/31 06:28:54;;;;;;;1.70;1.60;;;9.90;99.90;;;;;;5075082;28;20613;-79
2023/03/31 06:31:23;;;;;;;0.63;0.63;;;9.90;99.90;;;;;;5076554;28;20273;-78
2023/03/31 06:33:50;;;;;;;0.60;0.60;;;10.00;99.90;;;;;;5075376;28;20237;-80
2023/03/31 06:36:19;;;;;;;0.50;0.40;;;9.90;99.90;;;;;;5075523;28;20198;-81
2023/03/31 06:38:47;;;;;;;0.50;0.40;;;9.90;99.90;;;;;;5067609;28;20573;-82
2023/03/31 06:41:16;;;;;;;1.40;0.95;;;9.90;99.90;;;;;;5074714;28;20797;-80
2023/03/31 06:43:44;;;;;;;0.50;0.40;;;9.80;99.90;;;;;;5074341;28;20300;-81
2023/03/31 06:46:11;;;;;;;0.50;0.40;;;9.80;99.90;;;;;;5075087;28;20240;-80
2023/03/31 06:48:38;;;;;;;1.85;1.00;;;9.80;99.90;;;;;;5074501;28;20201;-80
2023/03/31 06:51:06;;;;;;;0.50;0.40;;;9.80;99.90;;;;;;5074786;28;20280;-80
2023/03/31 06:53:34;;;;;;;0.50;0.50;;;9.80;99.90;;;;;;5074679;28;20242;-77
2023/03/31 06:56:01;;;;;;;0.50;0.40;;;9.70;99.90;;;;;;5074984;28;20257;-80
2023/03/31 06:58:28;;;;;;;0.70;0.70;;;9.70;99.90;;;;;;5081936;28;20190;-81
2023/03/31 07:00:56;;;;;;;0.50;0.40;;;9.70;99.90;;;;;;5096155;28;20237;-81
2023/03/31 07:05:59;;;;;;;0.55;0.55;;;9.70;99.90;;;;;;5292772;22;20268;-78
2023/03/31 07:08:26;;;;;;;0.60;0.60;;;9.70;99.90;;;;;;4992313;28;20204;-76
2023/03/31 07:10:56;;;;;;;0.88;0.88;;;9.70;99.90;;;;;;4995369;28;20575;-76
2023/03/31 07:13:23;;;;;;;1.15;0.77;;;9.80;99.90;;;;;;4994180;28;20201;-78
2023/03/31 07:15:51;;;;;;;1.15;0.85;;;9.70;99.90;;;;;;4989055;28;20217;-75
2023/03/31 07:18:19;;;;;;;1.00;0.80;;;9.70;99.90;;;;;;4992782;28;20564;-75
2023/03/31 07:20:49;;;;;;;0.70;0.50;;;9.70;99.90;;;;;;4994032;28;20220;-78
2023/03/31 07:23:16;;;;;;;1.35;1.15;;;9.70;99.90;;;;;;4992996;28;20200;-77
2023/03/31 07:25:43;;;;;;;0.50;0.40;;;9.60;99.90;;;;;;4992761;28;20216;-78
2023/03/31 07:28:10;;;;;;;0.50;0.40;;;9.60;99.90;;;;;;4993412;28;20193;-79
2023/03/31 07:30:37;;;;;;;0.50;0.40;;;9.60;99.90;;;;;;4992941;28;20277;-78
2023/03/31 07:33:06;;;;;;;0.70;0.63;;;9.70;99.90;;;;;;4985205;28;20215;-78
2023/03/31 07:35:37;;;;;;;0.50;0.50;;;9.70;99.90;;;;;;4992828;28;20303;-78
2023/03/31 07:38:03;;;;;;;1.02;0.57;;;9.80;99.90;;;;;;4985376;28;20216;-78
2023/03/31 07:40:30;;;;;;;0.60;0.40;;;9.80;99.90;;;;;;4991924;28;20216;-78
2023/03/31 07:42:57;;;;;;;0.50;0.40;;;9.80;99.90;;;;;;4992317;28;20230;-77
2023/03/31 07:45:26;;;;;;;1.50;0.52;;;9.90;99.90;;;;;;4992543;28;20223;-76
2023/03/31 07:47:53;;;;;;;0.50;0.40;;;9.80;99.90;;;;;;4994142;28;20207;-77
2023/03/31 07:50:20;;;;;;;0.50;0.40;;;9.80;99.90;;;;;;4993207;28;20193;-75
2023/03/31 07:52:48;;;;;;;0.50;0.50;;;9.80;99.90;;;;;;4992756;28;20196;-78
2023/03/31 07:55:15;;;;;;;0.50;0.40;;;9.80;99.90;;;;;;4992329;28;20228;-78
2023/03/31 07:57:44;;;;;;;0.60;0.50;;;9.80;99.90;;;;;;4992583;28;20712;-77
2023/03/31 08:00:12;;;;;;;0.50;0.40;;;9.90;99.90;;;;;;4993065;28;20219;-77
2023/03/31 08:02:41;;;;;;;0.50;0.40;;;9.90;99.90;;;;;;4993073;28;20708;-77
2023/03/31 08:05:10;;;;;;;0.50;0.38;;;9.90;99.90;;;;;;4991678;28;20225;-78
2023/03/31 08:07:37;;;;;;;0.50;0.40;;;9.90;99.90;;;;;;4991456;28;20247;-77
2023/03/31 08:10:08;;;;;;;0.50;0.40;;;9.90;99.90;;;;;;4984431;28;20644;-77
2023/03/31 08:12:35;;;;;;;0.50;0.40;;;10.00;99.90;;;;;;4992132;28;20197;-77
2023/03/31 08:15:02;;;;;;;0.50;0.40;;;9.90;99.90;;;;;;4991737;28;20223;-78
2023/03/31 08:17:29;;;;;;;0.60;0.60;;;9.90;99.90;;;;;;4992230;28;20283;-77
2023/03/31 08:19:55;;;;;;;1.13;1.02;;;9.90;99.90;;;;;;4991921;28;20686;-76
2023/03/31 08:22:22;;;;;;;0.50;0.43;;;9.90;99.90;;;;;;4992190;28;20200;-78
2023/03/31 08:24:49;;;;;;;0.50;0.40;;;9.90;99.90;;;;;;4991325;28;20251;-78
2023/03/31 08:27:17;;;;;;;0.85;0.60;;;9.90;99.90;;;;;;4991961;28;20196;-76
2023/03/31 08:29:44;;;;;;;0.50;0.50;;;9.90;99.90;;;;;;4991547;28;20197;-77
2023/03/31 08:32:10;;;;;;;1.05;0.80;;;9.80;99.90;;;;;;4991906;28;20202;-77
2023/03/31 08:34:41;;;;;;;2.33;1.50;;;9.80;99.90;;;;;;4991497;28;20223;-77
2023/03/31 08:37:08;;;;;;;0.50;0.40;;;9.80;99.90;;;;;;4984421;28;20291;-77
2023/03/31 08:39:36;;;;;;;0.60;0.50;;;9.80;99.90;;;;;;4991496;28;20293;-77
2023/03/31 08:42:06;;;;;;;0.70;0.65;;;9.90;99.90;;;;;;4991924;28;20197;-77
2023/03/31 08:44:37;;;;;;;0.50;0.40;;;9.90;99.90;;;;;;4991751;28;20745;-77
2023/03/31 08:47:07;;;;;;;0.50;0.40;;;10.00;99.90;;;;;;4992123;28;20210;-76
2023/03/31 08:49:40;;;;;;;0.98;0.98;;;10.10;99.90;;;;;;4992300;28;20827;-78
2023/03/31 08:52:13;;;;;;;1.23;0.93;;;10.20;99.90;;;;;;4991960;28;20215;-77
2023/03/31 08:54:44;;;;;;;0.50;0.40;;;10.20;99.90;;;;;;4991395;28;20224;-77
2023/03/31 08:57:17;;;;;;;0.93;0.82;;;10.40;99.90;;;;;;4991771;28;20203;-77
2023/03/31 08:59:46;;;;;;;0.50;0.40;;;10.40;99.90;;;;;;4991425;28;20671;-78
2023/03/31 09:02:21;;;;;;;0.50;0.40;;;10.50;99.90;;;;;;4991602;28;20495;-78
2023/03/31 09:05:01;;;;;;;0.60;0.60;;;10.60;99.90;;;;;;4991008;28;20220;-78
2023/03/31 09:07:37;;;;;;;0.50;0.40;;;10.70;99.90;;;;;;4991551;28;20270;-78
2023/03/31 09:10:20;;;;;;;0.70;0.60;;;10.70;99.90;;;;;;4983675;28;20188;-77
2023/03/31 09:12:53;;;;;;;0.50;0.40;;;10.90;99.90;;;;;;4991225;28;20595;-78
2023/03/31 09:15:26;;;;;;;0.50;0.40;;;11.00;99.90;;;;;;4991271;28;20220;-77
2023/03/31 09:17:56;;;;;;;0.77;0.77;;;11.00;99.90;;;;;;4991410;28;20211;-78
2023/03/31 09:20:28;;;;;;;0.50;0.40;;;11.00;99.90;;;;;;4991532;28;20484;-77
2023/03/31 09:23:00;;;;;;;0.50;0.40;;;11.00;99.90;;;;;;4991510;28;20451;-78
2023/03/31 09:25:32;;;;;;;0.50;0.40;;;11.00;99.90;;;;;;4991357;28;20227;-78
2023/03/31 09:28:01;;;;;;;0.50;0.32;;;11.10;99.90;;;;;;4991113;28;20209;-77
2023/03/31 09:30:31;;;;;;;0.50;0.45;;;11.00;99.90;;;;;;4991347;28;20214;-77
2023/03/31 09:33:10;;;;;;;0.50;0.40;;;11.00;99.90;;;;;;4991136;28;20592;-77
2023/03/31 09:35:37;;;;;;;0.50;0.40;;;11.00;99.90;;;;;;4991234;28;20217;-77
2023/03/31 09:38:04;;;;;;;0.73;0.73;;;11.10;99.90;;;;;;4991234;28;20201;-77
2023/03/31 09:40:31;;;;;;;0.50;0.40;;;11.10;99.90;;;;;;4991368;28;20560;-77
2023/03/31 09:43:00;;;;;;;0.50;0.30;;;11.20;99.90;;;;;;4994719;28;20450;-78
2023/03/31 09:45:30;;;;;;;0.50;0.40;;;11.20;99.90;;;;;;4994592;28;20220;-77
2023/03/31 09:48:00;;;;;;;2.67;2.58;;;11.20;99.90;;;;;;4994614;28;20673;-78
2023/03/31 09:50:29;;;;;;;0.50;0.40;;;11.20;99.90;;;;;;4995272;28;20219;-77
2023/03/31 09:52:57;;;;;;;0.50;0.32;;;11.20;99.90;;;;;;4994289;28;20203;-78
2023/03/31 09:55:28;;;;;;;0.50;0.40;;;11.30;99.90;;;;;;4994291;28;20274;-78
2023/03/31 09:57:55;;;;;;;0.70;0.70;;;11.30;99.90;;;;;;4994357;28;20204;-78
2023/03/31 10:00:24;;;;;;;0.50;0.40;;;11.40;99.90;;;;;;4994803;28;20228;-76
2023/03/31 10:02:53;;;;;;;0.50;0.40;;;11.50;99.90;;;;;;4994428;28;20738;-78
2023/03/31 10:05:28;;;;;;;2.15;0.60;;;11.60;99.90;;;;;;4993928;28;21001;-78
2023/03/31 10:08:26;;;;;;;0.50;0.40;;;11.80;99.90;;;;;;4994164;28;20639;-78
2023/03/31 10:10:54;;;;;;;2.83;2.73;;;12.00;99.90;;;;;;4991299;28;20458;-77
2023/03/31 10:13:24;;;;;;;0.50;0.40;;;12.40;99.90;;;;;;4994625;28;20443;-78
2023/03/31 10:16:01;;;;;;;0.50;0.40;;;12.90;99.90;;;;;;4993747;28;20514;-78
2023/03/31 10:18:34;;;;;;;0.50;0.37;;;13.40;99.90;;;;;;4994151;28;21073;-77
2023/03/31 10:21:03;;;;;;;0.60;0.60;;;13.80;99.90;;;;;;4994874;28;20483;-75
2023/03/31 10:23:33;;;;;;;0.70;0.70;;;13.80;99.90;;;;;;4997489;28;20503;-75
2023/03/31 10:26:01;;;;;;;0.70;0.67;;;13.50;99.90;;;;;;4994535;28;20463;-78
2023/03/31 10:28:31;;;;;;;0.50;0.40;;;12.90;99.90;;;;;;4994662;28;20447;-77
2023/03/31 10:31:01;;;;;;;1.17;1.00;;;12.10;99.90;;;;;;4994982;28;20444;-77
2023/03/31 10:33:33;;;;;;;2.23;1.40;;;11.60;99.90;;;;;;4994044;28;20456;-77
2023/03/31 10:36:06;;;;;;;2.10;1.00;;;11.30;99.90;;;;;;4993223;28;20558;-77
2023/03/31 10:38:38;;;;;;;2.73;1.47;;;11.10;99.90;;;;;;4993868;28;20788;-77
2023/03/31 10:41:06;;;;;;;0.50;0.40;;;11.00;99.90;;;;;;4985906;28;20552;-77
2023/03/31 10:43:38;;;;;;;1.10;0.77;;;11.00;99.90;;;;;;4993799;28;20527;-77
2023/03/31 10:46:06;;;;;;;1.00;0.60;;;11.00;99.90;;;;;;4993532;28;20836;-77
2023/03/31 10:48:36;;;;;;;0.90;0.87;;;11.20;99.90;;;;;;4994147;28;20960;-77
2023/03/31 10:51:11;;;;;;;0.60;0.60;;;11.30;99.90;;;;;;4993781;28;20439;-77
2023/03/31 10:53:42;;;;;;;0.50;0.40;;;11.50;99.90;;;;;;4993090;28;20526;-77
2023/03/31 10:56:30;;;;;;;5.53;1.67;;;11.80;99.90;;;;;;4986131;28;20471;-78
2023/03/31 10:59:11;;;;;;;3.67;0.70;;;12.20;99.90;;;;;;4993427;28;20935;-78
2023/03/31 11:01:47;;;;;;;1.10;0.83;;;12.60;99.90;;;;;;4993687;28;20472;-77
2023/03/31 11:04:42;;;;;;;0.50;0.40;;;12.80;99.90;;;;;;4986146;28;20822;-77
2023/03/31 11:07:22;;;;;;;1.13;0.70;;;13.00;99.90;;;;;;4993165;28;20458;-78
2023/03/31 11:10:01;;;;;;;1.80;0.93;;;12.90;99.90;;;;;;4993031;28;20448;-77
2023/03/31 11:12:33;;;;;;;3.53;1.30;;;12.70;99.90;;;;;;4993444;28;20444;-76
2023/03/31 11:15:10;;;;;;;0.73;0.73;;;12.10;99.90;;;;;;4992648;28;20554;-77
2023/03/31 11:17:53;;;;;;;5.80;1.47;;;11.50;99.90;;;;;;4993156;28;20539;-77
2023/03/31 11:20:28;;;;;;;1.00;1.00;;;11.20;99.90;;;;;;4987207;28;20451;-76
2023/03/31 11:23:05;;;;;;;2.92;2.13;;;11.20;99.90;;;;;;4992997;28;20443;-77
2023/03/31 11:25:40;;;;;;;4.23;1.80;;;11.30;99.90;;;;;;4992637;28;20240;-76
2023/03/31 11:28:30;;;;;;;4.93;0.93;;;11.40;99.90;;;;;;4992684;28;20505;-76
2023/03/31 11:31:07;;;;;;;2.00;1.00;;;11.40;99.90;;;;;;4992879;28;20467;-77
2023/03/31 11:33:49;;;;;;;1.30;0.88;;;11.40;99.90;;;;;;4992783;28;20443;-77
2023/03/31 11:36:31;;;;;;;0.95;0.68;;;11.60;99.90;;;;;;4985903;28;20591;-76
2023/03/31 11:39:18;;;;;;;0.97;0.97;;;11.80;99.90;;;;;;4992523;28;20205;-77
2023/03/31 11:41:51;;;;;;;0.87;0.87;;;12.00;99.90;;;;;;4992671;28;20494;-76
2023/03/31 11:44:20;;;;;;;2.20;0.50;;;12.20;99.90;;;;;;4992433;28;20568;-76
2023/03/31 11:46:51;;;;;;;0.80;0.80;;;12.40;99.90;;;;;;4992264;28;20519;-76
2023/03/31 11:49:22;;;;;;;0.60;0.50;;;12.50;99.90;;;;;;4992712;28;20448;-76
2023/03/31 11:51:54;;;;;;;1.23;1.13;;;12.50;99.90;;;;;;4992340;28;20447;-76
2023/03/31 11:54:28;;;;;;;0.50;0.40;;;12.50;99.90;;;;;;4992379;28;20479;-76
2023/03/31 11:56:56;;;;;;;2.10;1.67;;;12.40;99.90;;;;;;4992992;28;20448;-76
2023/03/31 11:59:28;;;;;;;0.50;0.40;;;12.20;99.90;;;;;;4992837;28;20447;-75
2023/03/31 12:02:02;;;;;;;0.73;0.40;;;12.20;99.90;;;;;;4991949;28;20566;-77
2023/03/31 12:04:35;;;;;;;1.30;0.70;;;12.20;99.90;;;;;;4991816;28;20459;-76
2023/03/31 12:07:10;;;;;;;1.97;0.80;;;12.20;99.90;;;;;;4991983;28;20543;-75
2023/03/31 12:09:55;;;;;;;0.50;0.40;;;12.30;99.90;;;;;;4992254;28;20946;-76
2023/03/31 12:12:27;;;;;;;2.40;1.03;;;12.30;99.90;;;;;;4992339;28;20436;-76
2023/03/31 12:15:00;;;;;;;4.00;0.97;;;12.40;99.90;;;;;;4991883;28;20966;-76
2023/03/31 12:17:36;;;;;;;0.70;0.60;;;12.50;99.90;;;;;;4992410;28;20448;-77
2023/03/31 12:20:09;;;;;;;0.50;0.50;;;12.70;99.90;;;;;;4991993;28;20450;-77
2023/03/31 12:22:39;;;;;;;2.90;0.60;;;12.70;99.90;;;;;;4992206;28;20479;-76
2023/03/31 12:25:12;;;;;;;0.50;0.40;;;12.60;99.90;;;;;;4991835;28;20522;-77
2023/03/31 12:27:40;;;;;;;8.53;1.33;;;12.60;99.90;;;;;;4991894;28;20440;-76
2023/03/31 12:30:11;;;;;;;0.50;0.40;;;12.50;99.90;;;;;;4991833;28;20448;-76
2023/03/31 12:32:41;;;;;;;1.53;0.70;;;12.50;99.90;;;;;;4991968;28;20444;-76
2023/03/31 12:35:19;;;;;;;1.70;1.60;;;12.30;99.90;;;;;;4991593;28;20459;-77
2023/03/31 12:38:19;;;;;;;0.70;0.50;;;12.10;99.90;;;;;;4991832;28;20450;-76
2023/03/31 12:41:01;;;;;;;4.13;0.80;;;12.00;99.90;;;;;;4991760;28;20763;-76
2023/03/31 12:43:41;;;;;;;1.30;1.00;;;11.80;99.90;;;;;;4992038;28;20450;-76
2023/03/31 12:46:23;;;;;;;0.50;0.40;;;11.80;99.90;;;;;;4983810;28;20464;-76
2023/03/31 12:49:03;;;;;;;0.67;0.67;;;11.80;99.90;;;;;;4991449;28;20976;-76
2023/03/31 12:51:53;;;;;;;2.63;0.50;;;12.00;99.90;;;;;;4991676;28;20447;-76
2023/03/31 12:54:43;;;;;;;1.00;0.83;;;12.10;99.90;;;;;;4985787;28;20452;-76
2023/03/31 12:57:19;;;;;;;5.10;1.53;;;12.20;99.90;;;;;;4983669;28;20538;-77
2023/03/31 13:00:04;;;;;;;3.90;2.00;;;12.30;99.90;;;;;;4991473;28;20447;-76
2023/03/31 13:02:31;;;;;;;2.33;1.47;;;12.50;99.90;;;;;;4991534;28;20471;-76
2023/03/31 13:04:58;;;;;;;0.60;0.50;;;13.00;99.90;;;;;;4990749;28;20470;-75
2023/03/31 13:07:44;;;;;;;1.33;1.20;;;13.20;99.90;;;;;;4991653;28;20451;-76
2023/03/31 13:10:28;;;;;;;0.50;0.40;;;13.20;99.90;;;;;;4984548;28;20823;-76
2023/03/31 13:13:01;;;;;;;1.33;1.20;;;13.30;99.90;;;;;;4991615;28;20444;-77
2023/03/31 13:15:29;;;;;;;0.87;0.83;;;13.20;99.90;;;;;;4991345;28;20526;-77